sensor_id;sensor_type;location;lat;lon;timestamp;P1;durP1;ratioP1;P2;durP2;ratioP2
77076;SDS011;66003;52.286;104.306;2023-08-01T00:00:07;14.90;;;10.02;;
77076;SDS011;66003;52.286;104.306;2023-08-01T00:02:34;11.95;;;8.43;;
77076;SDS011;66003;52.286;104.306;2023-08-01T00:05:00;19.80;;;8.77;;
77076;SDS011;66003;52.286;104.306;2023-08-01T00:07:28;12.52;;;8.18;;
77076;SDS011;66003;52.286;104.306;2023-08-01T00:09:54;16.55;;;12.70;;
77076;SDS011;66003;52.286;104.306;2023-08-01T00:12:21;20.77;;;12.82;;
77076;SDS011;66003;52.286;104.306;2023-08-01T00:14:50;17.00;;;9.68;;
77076;SDS011;66003;52.286;104.306;2023-08-01T00:17:16;20.65;;;11.15;;
77076;SDS011;66003;52.286;104.306;2023-08-01T00:19:43;13.35;;;9.35;;
77076;SDS011;66003;52.286;104.306;2023-08-01T00:22:09;15.52;;;9.45;;
77076;SDS011;66003;52.286;104.306;2023-08-01T00:24:35;13.88;;;9.10;;
77076;SDS011;66003;52.286;104.306;2023-08-01T00:27:01;14.73;;;9.55;;
77076;SDS011;66003;52.286;104.306;2023-08-01T00:29:28;14.70;;;9.65;;
77076;SDS011;66003;52.286;104.306;2023-08-01T00:31:55;14.25;;;9.98;;
77076;SDS011;66003;52.286;104.306;2023-08-01T00:34:21;11.95;;;9.63;;
77076;SDS011;66003;52.286;104.306;2023-08-01T00:36:47;13.75;;;9.32;;
77076;SDS011;66003;52.286;104.306;2023-08-01T00:39:14;16.02;;;9.52;;
77076;SDS011;66003;52.286;104.306;2023-08-01T00:41:42;12.65;;;8.68;;
77076;SDS011;66003;52.286;104.306;2023-08-01T00:44:08;12.55;;;9.23;;
77076;SDS011;66003;52.286;104.306;2023-08-01T00:46:34;12.00;;;7.90;;
77076;SDS011;66003;52.286;104.306;2023-08-01T00:49:00;16.23;;;9.73;;
77076;SDS011;66003;52.286;104.306;2023-08-01T00:51:27;16.08;;;7.75;;
77076;SDS011;66003;52.286;104.306;2023-08-01T00:53:55;16.02;;;8.55;;
77076;SDS011;66003;52.286;104.306;2023-08-01T00:56:22;21.13;;;9.00;;
77076;SDS011;66003;52.286;104.306;2023-08-01T00:58:48;17.67;;;9.80;;
77076;SDS011;66003;52.286;104.306;2023-08-01T01:01:14;18.58;;;11.65;;
77076;SDS011;66003;52.286;104.306;2023-08-01T01:03:40;26.40;;;11.52;;
77076;SDS011;66003;52.286;104.306;2023-08-01T01:08:57;24.73;;;13.45;;
77076;SDS011;66003;52.286;104.306;2023-08-01T01:11:23;24.30;;;12.13;;
77076;SDS011;66003;52.286;104.306;2023-08-01T01:13:50;16.33;;;10.15;;
77076;SDS011;66003;52.286;104.306;2023-08-01T01:16:19;17.35;;;11.05;;
77076;SDS011;66003;52.286;104.306;2023-08-01T01:18:46;18.33;;;11.20;;
77076;SDS011;66003;52.286;104.306;2023-08-01T01:21:12;15.88;;;9.20;;
77076;SDS011;66003;52.286;104.306;2023-08-01T01:23:38;19.08;;;9.30;;
77076;SDS011;66003;52.286;104.306;2023-08-01T01:26:06;18.05;;;8.10;;
77076;SDS011;66003;52.286;104.306;2023-08-01T01:28:33;13.40;;;8.70;;
77076;SDS011;66003;52.286;104.306;2023-08-01T01:31:01;17.25;;;8.77;;
77076;SDS011;66003;52.286;104.306;2023-08-01T01:33:28;22.27;;;8.38;;
77076;SDS011;66003;52.286;104.306;2023-08-01T01:35:54;15.13;;;9.18;;
77076;SDS011;66003;52.286;104.306;2023-08-01T01:38:20;16.23;;;9.25;;
77076;SDS011;66003;52.286;104.306;2023-08-01T01:40:46;16.25;;;9.50;;
77076;SDS011;66003;52.286;104.306;2023-08-01T01:43:12;14.18;;;7.35;;
77076;SDS011;66003;52.286;104.306;2023-08-01T01:45:39;17.90;;;9.00;;
77076;SDS011;66003;52.286;104.306;2023-08-01T01:48:05;18.92;;;10.77;;
77076;SDS011;66003;52.286;104.306;2023-08-01T01:50:31;14.73;;;9.32;;
77076;SDS011;66003;52.286;104.306;2023-08-01T01:52:57;15.70;;;9.10;;
77076;SDS011;66003;52.286;104.306;2023-08-01T01:55:23;15.07;;;9.88;;
77076;SDS011;66003;52.286;104.306;2023-08-01T01:57:49;16.27;;;9.50;;
77076;SDS011;66003;52.286;104.306;2023-08-01T02:00:15;16.23;;;10.32;;
77076;SDS011;66003;52.286;104.306;2023-08-01T02:02:41;16.88;;;11.45;;
77076;SDS011;66003;52.286;104.306;2023-08-01T02:05:08;15.10;;;10.00;;
77076;SDS011;66003;52.286;104.306;2023-08-01T02:07:34;19.02;;;10.80;;
77076;SDS011;66003;52.286;104.306;2023-08-01T02:10:01;16.42;;;10.73;;
77076;SDS011;66003;52.286;104.306;2023-08-01T02:12:31;17.65;;;10.38;;
77076;SDS011;66003;52.286;104.306;2023-08-01T02:15:01;18.83;;;9.77;;
77076;SDS011;66003;52.286;104.306;2023-08-01T02:17:32;16.20;;;9.23;;
77076;SDS011;66003;52.286;104.306;2023-08-01T02:20:18;18.80;;;10.57;;
77076;SDS011;66003;52.286;104.306;2023-08-01T02:22:44;16.88;;;9.32;;
77076;SDS011;66003;52.286;104.306;2023-08-01T02:25:11;18.27;;;10.23;;
77076;SDS011;66003;52.286;104.306;2023-08-01T02:27:38;23.60;;;11.02;;
77076;SDS011;66003;52.286;104.306;2023-08-01T02:30:07;19.15;;;10.38;;
77076;SDS011;66003;52.286;104.306;2023-08-01T02:32:35;20.75;;;10.43;;
77076;SDS011;66003;52.286;104.306;2023-08-01T02:35:02;17.20;;;10.80;;
77076;SDS011;66003;52.286;104.306;2023-08-01T02:37:33;13.18;;;9.32;;
77076;SDS011;66003;52.286;104.306;2023-08-01T02:40:01;14.57;;;8.88;;
77076;SDS011;66003;52.286;104.306;2023-08-01T02:42:33;14.88;;;10.90;;
77076;SDS011;66003;52.286;104.306;2023-08-01T02:44:59;19.88;;;10.88;;
77076;SDS011;66003;52.286;104.306;2023-08-01T02:47:26;16.08;;;11.07;;
77076;SDS011;66003;52.286;104.306;2023-08-01T02:49:52;15.82;;;11.10;;
77076;SDS011;66003;52.286;104.306;2023-08-01T02:52:19;20.63;;;11.80;;
77076;SDS011;66003;52.286;104.306;2023-08-01T02:54:45;17.40;;;9.95;;
77076;SDS011;66003;52.286;104.306;2023-08-01T02:57:11;23.85;;;12.65;;
77076;SDS011;66003;52.286;104.306;2023-08-01T02:59:37;19.20;;;11.98;;
77076;SDS011;66003;52.286;104.306;2023-08-01T03:02:03;20.42;;;13.82;;
77076;SDS011;66003;52.286;104.306;2023-08-01T03:04:30;16.30;;;12.45;;
77076;SDS011;66003;52.286;104.306;2023-08-01T03:06:56;18.00;;;12.38;;
77076;SDS011;66003;52.286;104.306;2023-08-01T03:09:22;17.13;;;11.85;;
77076;SDS011;66003;52.286;104.306;2023-08-01T03:11:48;17.17;;;10.85;;
77076;SDS011;66003;52.286;104.306;2023-08-01T03:14:15;13.35;;;9.65;;
77076;SDS011;66003;52.286;104.306;2023-08-01T03:16:42;18.67;;;11.63;;
77076;SDS011;66003;52.286;104.306;2023-08-01T03:19:09;14.70;;;11.88;;
77076;SDS011;66003;52.286;104.306;2023-08-01T03:21:35;22.30;;;13.05;;
77076;SDS011;66003;52.286;104.306;2023-08-01T03:24:02;16.85;;;11.82;;
77076;SDS011;66003;52.286;104.306;2023-08-01T03:26:34;16.38;;;12.85;;
77076;SDS011;66003;52.286;104.306;2023-08-01T03:29:02;17.63;;;11.98;;
77076;SDS011;66003;52.286;104.306;2023-08-01T03:31:28;19.92;;;11.40;;
77076;SDS011;66003;52.286;104.306;2023-08-01T03:33:55;23.67;;;12.40;;
77076;SDS011;66003;52.286;104.306;2023-08-01T03:36:21;18.60;;;12.20;;
77076;SDS011;66003;52.286;104.306;2023-08-01T03:38:47;18.80;;;13.30;;
77076;SDS011;66003;52.286;104.306;2023-08-01T03:41:13;16.10;;;12.43;;
77076;SDS011;66003;52.286;104.306;2023-08-01T03:43:40;23.55;;;12.20;;
77076;SDS011;66003;52.286;104.306;2023-08-01T03:46:06;17.40;;;12.73;;
77076;SDS011;66003;52.286;104.306;2023-08-01T03:48:33;22.58;;;13.52;;
77076;SDS011;66003;52.286;104.306;2023-08-01T03:51:00;18.02;;;12.68;;
77076;SDS011;66003;52.286;104.306;2023-08-01T03:53:29;15.55;;;11.93;;
77076;SDS011;66003;52.286;104.306;2023-08-01T03:55:55;18.45;;;12.05;;
77076;SDS011;66003;52.286;104.306;2023-08-01T03:58:22;21.02;;;13.10;;
77076;SDS011;66003;52.286;104.306;2023-08-01T04:00:48;19.02;;;12.40;;
77076;SDS011;66003;52.286;104.306;2023-08-01T04:03:15;18.75;;;11.80;;
77076;SDS011;66003;52.286;104.306;2023-08-01T04:05:41;23.63;;;13.40;;
77076;SDS011;66003;52.286;104.306;2023-08-01T04:08:08;16.42;;;13.38;;
77076;SDS011;66003;52.286;104.306;2023-08-01T04:10:34;17.63;;;13.55;;
77076;SDS011;66003;52.286;104.306;2023-08-01T04:13:00;20.90;;;14.35;;
77076;SDS011;66003;52.286;104.306;2023-08-01T04:15:26;20.23;;;13.85;;
77076;SDS011;66003;52.286;104.306;2023-08-01T04:17:54;16.70;;;13.80;;
77076;SDS011;66003;52.286;104.306;2023-08-01T04:20:22;18.92;;;13.85;;
77076;SDS011;66003;52.286;104.306;2023-08-01T04:22:48;16.67;;;13.23;;
77076;SDS011;66003;52.286;104.306;2023-08-01T04:25:15;20.42;;;14.02;;
77076;SDS011;66003;52.286;104.306;2023-08-01T04:27:41;18.48;;;13.02;;
77076;SDS011;66003;52.286;104.306;2023-08-01T04:30:07;20.98;;;14.00;;
77076;SDS011;66003;52.286;104.306;2023-08-01T04:32:36;17.92;;;15.05;;
77076;SDS011;66003;52.286;104.306;2023-08-01T04:35:03;27.10;;;14.63;;
77076;SDS011;66003;52.286;104.306;2023-08-01T04:37:33;21.80;;;15.00;;
77076;SDS011;66003;52.286;104.306;2023-08-01T04:40:00;21.25;;;13.45;;
77076;SDS011;66003;52.286;104.306;2023-08-01T04:42:30;17.88;;;13.35;;
77076;SDS011;66003;52.286;104.306;2023-08-01T04:44:56;19.90;;;14.98;;
77076;SDS011;66003;52.286;104.306;2023-08-01T04:47:22;19.92;;;14.98;;
77076;SDS011;66003;52.286;104.306;2023-08-01T04:49:48;19.42;;;15.07;;
77076;SDS011;66003;52.286;104.306;2023-08-01T04:52:14;24.05;;;14.35;;
77076;SDS011;66003;52.286;104.306;2023-08-01T04:54:40;20.00;;;12.82;;
77076;SDS011;66003;52.286;104.306;2023-08-01T04:57:06;24.42;;;15.55;;
77076;SDS011;66003;52.286;104.306;2023-08-01T04:59:32;21.08;;;16.42;;
77076;SDS011;66003;52.286;104.306;2023-08-01T05:01:58;22.20;;;15.73;;
77076;SDS011;66003;52.286;104.306;2023-08-01T05:04:25;24.23;;;14.68;;
77076;SDS011;66003;52.286;104.306;2023-08-01T05:06:51;23.20;;;16.95;;
77076;SDS011;66003;52.286;104.306;2023-08-01T05:09:17;20.05;;;15.95;;
77076;SDS011;66003;52.286;104.306;2023-08-01T05:11:43;26.73;;;14.50;;
77076;SDS011;66003;52.286;104.306;2023-08-01T05:14:09;24.48;;;15.98;;
77076;SDS011;66003;52.286;104.306;2023-08-01T05:16:35;18.00;;;14.43;;
77076;SDS011;66003;52.286;104.306;2023-08-01T05:19:01;23.33;;;15.02;;
77076;SDS011;66003;52.286;104.306;2023-08-01T05:21:27;19.02;;;14.48;;
77076;SDS011;66003;52.286;104.306;2023-08-01T05:23:54;17.65;;;11.43;;
77076;SDS011;66003;52.286;104.306;2023-08-01T05:26:20;17.63;;;13.82;;
77076;SDS011;66003;52.286;104.306;2023-08-01T05:28:46;18.23;;;13.68;;
77076;SDS011;66003;52.286;104.306;2023-08-01T05:31:12;22.67;;;15.48;;
77076;SDS011;66003;52.286;104.306;2023-08-01T05:33:38;20.70;;;12.60;;
77076;SDS011;66003;52.286;104.306;2023-08-01T05:36:04;21.23;;;14.60;;
77076;SDS011;66003;52.286;104.306;2023-08-01T05:38:30;18.20;;;14.68;;
77076;SDS011;66003;52.286;104.306;2023-08-01T05:40:57;15.95;;;13.75;;
77076;SDS011;66003;52.286;104.306;2023-08-01T05:43:23;20.60;;;14.05;;
77076;SDS011;66003;52.286;104.306;2023-08-01T05:45:49;22.00;;;14.27;;
77076;SDS011;66003;52.286;104.306;2023-08-01T05:48:15;20.05;;;14.63;;
77076;SDS011;66003;52.286;104.306;2023-08-01T05:50:41;19.40;;;13.80;;
77076;SDS011;66003;52.286;104.306;2023-08-01T05:53:08;22.73;;;14.80;;
77076;SDS011;66003;52.286;104.306;2023-08-01T05:55:34;16.58;;;13.05;;
77076;SDS011;66003;52.286;104.306;2023-08-01T05:58:00;20.33;;;13.65;;
77076;SDS011;66003;52.286;104.306;2023-08-01T06:00:26;17.77;;;14.45;;
77076;SDS011;66003;52.286;104.306;2023-08-01T06:02:53;19.20;;;14.20;;
77076;SDS011;66003;52.286;104.306;2023-08-01T06:05:19;20.45;;;13.68;;
77076;SDS011;66003;52.286;104.306;2023-08-01T06:07:45;17.58;;;14.35;;
77076;SDS011;66003;52.286;104.306;2023-08-01T06:10:11;18.92;;;14.38;;
77076;SDS011;66003;52.286;104.306;2023-08-01T06:12:37;22.77;;;14.88;;
77076;SDS011;66003;52.286;104.306;2023-08-01T06:15:04;18.45;;;14.52;;
77076;SDS011;66003;52.286;104.306;2023-08-01T06:17:33;20.65;;;15.45;;
77076;SDS011;66003;52.286;104.306;2023-08-01T06:20:01;17.08;;;14.45;;
77076;SDS011;66003;52.286;104.306;2023-08-01T06:22:33;16.05;;;12.43;;
77076;SDS011;66003;52.286;104.306;2023-08-01T06:24:59;19.92;;;15.27;;
77076;SDS011;66003;52.286;104.306;2023-08-01T06:27:25;18.38;;;13.02;;
77076;SDS011;66003;52.286;104.306;2023-08-01T06:29:52;17.02;;;13.75;;
77076;SDS011;66003;52.286;104.306;2023-08-01T06:32:18;18.85;;;12.05;;
77076;SDS011;66003;52.286;104.306;2023-08-01T06:34:44;21.45;;;16.58;;
77076;SDS011;66003;52.286;104.306;2023-08-01T06:37:10;22.85;;;14.95;;
77076;SDS011;66003;52.286;104.306;2023-08-01T06:39:36;18.55;;;12.00;;
77076;SDS011;66003;52.286;104.306;2023-08-01T06:42:02;17.88;;;15.10;;
77076;SDS011;66003;52.286;104.306;2023-08-01T06:44:29;19.35;;;15.60;;
77076;SDS011;66003;52.286;104.306;2023-08-01T06:46:55;24.23;;;18.13;;
77076;SDS011;66003;52.286;104.306;2023-08-01T06:49:21;23.23;;;17.45;;
77076;SDS011;66003;52.286;104.306;2023-08-01T06:51:47;26.42;;;18.10;;
77076;SDS011;66003;52.286;104.306;2023-08-01T06:54:13;27.48;;;21.35;;
77076;SDS011;66003;52.286;104.306;2023-08-01T06:56:40;25.15;;;16.83;;
77076;SDS011;66003;52.286;104.306;2023-08-01T06:59:16;27.55;;;21.15;;
77076;SDS011;66003;52.286;104.306;2023-08-01T07:01:42;32.55;;;22.83;;
77076;SDS011;66003;52.286;104.306;2023-08-01T07:04:10;26.80;;;18.60;;
77076;SDS011;66003;52.286;104.306;2023-08-01T07:06:36;29.33;;;19.40;;
77076;SDS011;66003;52.286;104.306;2023-08-01T07:09:03;26.33;;;20.25;;
77076;SDS011;66003;52.286;104.306;2023-08-01T07:11:29;38.30;;;23.33;;
77076;SDS011;66003;52.286;104.306;2023-08-01T07:13:55;29.63;;;22.98;;
77076;SDS011;66003;52.286;104.306;2023-08-01T07:16:21;26.05;;;19.23;;
77076;SDS011;66003;52.286;104.306;2023-08-01T07:18:48;25.42;;;18.02;;
77076;SDS011;66003;52.286;104.306;2023-08-01T07:21:14;29.00;;;20.50;;
77076;SDS011;66003;52.286;104.306;2023-08-01T07:23:40;25.10;;;17.50;;
77076;SDS011;66003;52.286;104.306;2023-08-01T07:26:06;29.50;;;19.38;;
77076;SDS011;66003;52.286;104.306;2023-08-01T07:28:32;30.52;;;19.75;;
77076;SDS011;66003;52.286;104.306;2023-08-01T07:30:59;32.15;;;21.48;;
77076;SDS011;66003;52.286;104.306;2023-08-01T07:33:25;25.95;;;19.35;;
77076;SDS011;66003;52.286;104.306;2023-08-01T07:35:52;27.10;;;17.83;;
77076;SDS011;66003;52.286;104.306;2023-08-01T07:38:18;26.83;;;18.52;;
77076;SDS011;66003;52.286;104.306;2023-08-01T07:40:44;22.88;;;17.00;;
77076;SDS011;66003;52.286;104.306;2023-08-01T07:43:10;27.63;;;17.20;;
77076;SDS011;66003;52.286;104.306;2023-08-01T07:45:37;22.65;;;18.05;;
77076;SDS011;66003;52.286;104.306;2023-08-01T07:48:03;26.30;;;18.63;;
77076;SDS011;66003;52.286;104.306;2023-08-01T07:50:29;25.40;;;17.73;;
77076;SDS011;66003;52.286;104.306;2023-08-01T07:52:56;23.00;;;15.90;;
77076;SDS011;66003;52.286;104.306;2023-08-01T07:55:23;28.73;;;18.35;;
77076;SDS011;66003;52.286;104.306;2023-08-01T07:57:49;23.45;;;18.95;;
77076;SDS011;66003;52.286;104.306;2023-08-01T08:00:15;27.08;;;17.85;;
77076;SDS011;66003;52.286;104.306;2023-08-01T08:02:42;23.67;;;18.13;;
77076;SDS011;66003;52.286;104.306;2023-08-01T08:05:09;21.92;;;16.25;;
77076;SDS011;66003;52.286;104.306;2023-08-01T08:07:36;20.25;;;15.30;;
77076;SDS011;66003;52.286;104.306;2023-08-01T08:10:06;19.67;;;15.15;;
77076;SDS011;66003;52.286;104.306;2023-08-01T08:12:32;21.80;;;15.98;;
77076;SDS011;66003;52.286;104.306;2023-08-01T08:14:58;24.45;;;16.75;;
77076;SDS011;66003;52.286;104.306;2023-08-01T08:17:24;26.30;;;18.23;;
77076;SDS011;66003;52.286;104.306;2023-08-01T08:19:50;23.27;;;17.48;;
77076;SDS011;66003;52.286;104.306;2023-08-01T08:22:17;24.85;;;18.92;;
77076;SDS011;66003;52.286;104.306;2023-08-01T08:24:43;25.38;;;18.10;;
77076;SDS011;66003;52.286;104.306;2023-08-01T08:27:09;22.80;;;18.88;;
77076;SDS011;66003;52.286;104.306;2023-08-01T08:29:35;25.85;;;18.23;;
77076;SDS011;66003;52.286;104.306;2023-08-01T08:32:01;24.92;;;19.30;;
77076;SDS011;66003;52.286;104.306;2023-08-01T08:34:28;25.75;;;20.08;;
77076;SDS011;66003;52.286;104.306;2023-08-01T08:36:54;29.70;;;17.95;;
77076;SDS011;66003;52.286;104.306;2023-08-01T08:39:20;27.15;;;19.00;;
77076;SDS011;66003;52.286;104.306;2023-08-01T08:41:48;23.92;;;18.65;;
77076;SDS011;66003;52.286;104.306;2023-08-01T08:44:17;25.02;;;17.83;;
77076;SDS011;66003;52.286;104.306;2023-08-01T08:46:49;23.52;;;17.70;;
77076;SDS011;66003;52.286;104.306;2023-08-01T08:49:20;24.63;;;17.98;;
77076;SDS011;66003;52.286;104.306;2023-08-01T08:51:47;24.55;;;16.52;;
77076;SDS011;66003;52.286;104.306;2023-08-01T08:54:15;18.77;;;15.05;;
77076;SDS011;66003;52.286;104.306;2023-08-01T08:56:42;22.92;;;15.60;;
77076;SDS011;66003;52.286;104.306;2023-08-01T08:59:09;27.63;;;16.77;;
77076;SDS011;66003;52.286;104.306;2023-08-01T09:01:36;24.42;;;17.27;;
77076;SDS011;66003;52.286;104.306;2023-08-01T09:04:03;24.40;;;16.35;;
77076;SDS011;66003;52.286;104.306;2023-08-01T09:06:31;25.58;;;17.45;;
77076;SDS011;66003;52.286;104.306;2023-08-01T09:09:14;26.98;;;19.20;;
77076;SDS011;66003;52.286;104.306;2023-08-01T09:11:46;29.23;;;19.20;;
77076;SDS011;66003;52.286;104.306;2023-08-01T09:14:40;28.58;;;18.42;;
77076;SDS011;66003;52.286;104.306;2023-08-01T09:17:08;30.60;;;19.95;;
77076;SDS011;66003;52.286;104.306;2023-08-01T09:19:34;29.20;;;18.63;;
77076;SDS011;66003;52.286;104.306;2023-08-01T09:22:01;29.35;;;18.67;;
77076;SDS011;66003;52.286;104.306;2023-08-01T09:24:35;27.33;;;18.52;;
77076;SDS011;66003;52.286;104.306;2023-08-01T09:27:02;30.55;;;20.02;;
77076;SDS011;66003;52.286;104.306;2023-08-01T09:29:34;32.15;;;22.10;;
77076;SDS011;66003;52.286;104.306;2023-08-01T09:32:00;28.15;;;21.58;;
77076;SDS011;66003;52.286;104.306;2023-08-01T09:34:38;29.08;;;20.02;;
77076;SDS011;66003;52.286;104.306;2023-08-01T09:37:04;32.60;;;21.05;;
77076;SDS011;66003;52.286;104.306;2023-08-01T09:39:30;27.80;;;18.70;;
77076;SDS011;66003;52.286;104.306;2023-08-01T09:41:57;27.05;;;20.50;;
77076;SDS011;66003;52.286;104.306;2023-08-01T09:44:25;31.60;;;20.42;;
77076;SDS011;66003;52.286;104.306;2023-08-01T09:49:49;29.17;;;18.75;;
77076;SDS011;66003;52.286;104.306;2023-08-01T09:52:25;24.58;;;18.42;;
77076;SDS011;66003;52.286;104.306;2023-08-01T09:54:52;22.55;;;17.58;;
77076;SDS011;66003;52.286;104.306;2023-08-01T09:57:19;23.05;;;17.48;;
77076;SDS011;66003;52.286;104.306;2023-08-01T09:59:47;22.85;;;17.10;;
77076;SDS011;66003;52.286;104.306;2023-08-01T10:02:15;22.52;;;15.25;;
77076;SDS011;66003;52.286;104.306;2023-08-01T10:04:46;26.60;;;18.85;;
77076;SDS011;66003;52.286;104.306;2023-08-01T10:07:13;22.13;;;14.90;;
77076;SDS011;66003;52.286;104.306;2023-08-01T10:09:46;19.33;;;15.05;;
77076;SDS011;66003;52.286;104.306;2023-08-01T10:12:13;18.88;;;14.63;;
77076;SDS011;66003;52.286;104.306;2023-08-01T10:14:43;22.40;;;13.80;;
77076;SDS011;66003;52.286;104.306;2023-08-01T10:17:11;24.65;;;17.15;;
77076;SDS011;66003;52.286;104.306;2023-08-01T10:19:38;23.90;;;17.58;;
77076;SDS011;66003;52.286;104.306;2023-08-01T10:22:06;24.33;;;18.17;;
77076;SDS011;66003;52.286;104.306;2023-08-01T10:24:33;24.33;;;18.15;;
77076;SDS011;66003;52.286;104.306;2023-08-01T10:27:14;26.75;;;17.80;;
77076;SDS011;66003;52.286;104.306;2023-08-01T10:29:44;18.23;;;15.23;;
77076;SDS011;66003;52.286;104.306;2023-08-01T10:32:12;21.30;;;14.65;;
77076;SDS011;66003;52.286;104.306;2023-08-01T10:34:39;21.88;;;15.80;;
77076;SDS011;66003;52.286;104.306;2023-08-01T10:37:16;17.65;;;10.45;;
77076;SDS011;66003;52.286;104.306;2023-08-01T10:39:42;15.07;;;11.80;;
77076;SDS011;66003;52.286;104.306;2023-08-01T10:42:08;16.73;;;12.25;;
77076;SDS011;66003;52.286;104.306;2023-08-01T10:44:44;16.98;;;11.93;;
77076;SDS011;66003;52.286;104.306;2023-08-01T10:47:11;16.17;;;13.02;;
77076;SDS011;66003;52.286;104.306;2023-08-01T10:49:41;17.67;;;13.27;;
77076;SDS011;66003;52.286;104.306;2023-08-01T10:52:18;18.35;;;13.30;;
77076;SDS011;66003;52.286;104.306;2023-08-01T10:54:58;18.95;;;14.02;;
77076;SDS011;66003;52.286;104.306;2023-08-01T10:57:29;17.90;;;13.60;;
77076;SDS011;66003;52.286;104.306;2023-08-01T10:59:56;20.77;;;13.68;;
77076;SDS011;66003;52.286;104.306;2023-08-01T11:02:27;18.40;;;14.27;;
77076;SDS011;66003;52.286;104.306;2023-08-01T11:04:55;18.42;;;14.30;;
77076;SDS011;66003;52.286;104.306;2023-08-01T11:07:25;21.77;;;14.40;;
77076;SDS011;66003;52.286;104.306;2023-08-01T11:10:02;24.92;;;16.58;;
77076;SDS011;66003;52.286;104.306;2023-08-01T11:12:30;24.77;;;15.52;;
77076;SDS011;66003;52.286;104.306;2023-08-01T11:14:59;23.02;;;17.10;;
77076;SDS011;66003;52.286;104.306;2023-08-01T11:17:26;26.10;;;17.75;;
77076;SDS011;66003;52.286;104.306;2023-08-01T11:19:59;25.48;;;17.67;;
77076;SDS011;66003;52.286;104.306;2023-08-01T11:22:27;28.65;;;18.55;;
77076;SDS011;66003;52.286;104.306;2023-08-01T11:24:53;25.67;;;17.70;;
77076;SDS011;66003;52.286;104.306;2023-08-01T11:27:19;24.63;;;18.55;;
77076;SDS011;66003;52.286;104.306;2023-08-01T11:29:46;23.98;;;19.75;;
77076;SDS011;66003;52.286;104.306;2023-08-01T11:32:12;22.88;;;17.73;;
77076;SDS011;66003;52.286;104.306;2023-08-01T11:34:41;23.63;;;17.15;;
77076;SDS011;66003;52.286;104.306;2023-08-01T11:37:12;29.17;;;18.63;;
77076;SDS011;66003;52.286;104.306;2023-08-01T11:39:40;30.10;;;18.88;;
77076;SDS011;66003;52.286;104.306;2023-08-01T11:42:06;27.25;;;19.42;;
77076;SDS011;66003;52.286;104.306;2023-08-01T11:44:33;27.02;;;18.98;;
77076;SDS011;66003;52.286;104.306;2023-08-01T11:46:59;27.33;;;18.80;;
77076;SDS011;66003;52.286;104.306;2023-08-01T11:49:25;27.48;;;21.30;;
77076;SDS011;66003;52.286;104.306;2023-08-01T11:51:52;28.83;;;20.05;;
77076;SDS011;66003;52.286;104.306;2023-08-01T11:54:18;28.30;;;21.15;;
77076;SDS011;66003;52.286;104.306;2023-08-01T11:56:44;30.15;;;19.73;;
77076;SDS011;66003;52.286;104.306;2023-08-01T11:59:10;26.27;;;19.20;;
77076;SDS011;66003;52.286;104.306;2023-08-01T12:01:44;27.75;;;19.83;;
77076;SDS011;66003;52.286;104.306;2023-08-01T12:04:12;29.60;;;20.23;;
77076;SDS011;66003;52.286;104.306;2023-08-01T12:06:49;27.73;;;19.60;;
77076;SDS011;66003;52.286;104.306;2023-08-01T12:09:16;31.58;;;22.15;;
77076;SDS011;66003;52.286;104.306;2023-08-01T12:11:42;32.47;;;21.10;;
77076;SDS011;66003;52.286;104.306;2023-08-01T12:14:09;33.00;;;21.42;;
77076;SDS011;66003;52.286;104.306;2023-08-01T12:16:41;32.03;;;21.33;;
77076;SDS011;66003;52.286;104.306;2023-08-01T12:19:10;28.55;;;20.58;;
77076;SDS011;66003;52.286;104.306;2023-08-01T12:21:43;29.42;;;20.58;;
77076;SDS011;66003;52.286;104.306;2023-08-01T12:24:10;31.00;;;21.42;;
77076;SDS011;66003;52.286;104.306;2023-08-01T12:26:36;33.38;;;20.35;;
77076;SDS011;66003;52.286;104.306;2023-08-01T12:29:04;28.45;;;21.52;;
77076;SDS011;66003;52.286;104.306;2023-08-01T12:31:31;34.33;;;22.13;;
77076;SDS011;66003;52.286;104.306;2023-08-01T12:33:57;33.25;;;21.85;;
77076;SDS011;66003;52.286;104.306;2023-08-01T12:36:23;30.90;;;22.35;;
77076;SDS011;66003;52.286;104.306;2023-08-01T12:38:49;30.42;;;21.30;;
77076;SDS011;66003;52.286;104.306;2023-08-01T12:41:16;28.55;;;22.55;;
77076;SDS011;66003;52.286;104.306;2023-08-01T12:43:42;31.40;;;20.83;;
77076;SDS011;66003;52.286;104.306;2023-08-01T12:46:08;29.08;;;20.90;;
77076;SDS011;66003;52.286;104.306;2023-08-01T12:48:34;31.38;;;22.13;;
77076;SDS011;66003;52.286;104.306;2023-08-01T12:51:00;31.15;;;18.58;;
77076;SDS011;66003;52.286;104.306;2023-08-01T12:53:28;31.40;;;19.98;;
77076;SDS011;66003;52.286;104.306;2023-08-01T12:55:54;28.35;;;19.08;;
77076;SDS011;66003;52.286;104.306;2023-08-01T12:58:21;35.10;;;22.80;;
77076;SDS011;66003;52.286;104.306;2023-08-01T13:00:47;33.10;;;23.38;;
77076;SDS011;66003;52.286;104.306;2023-08-01T13:03:13;31.33;;;23.85;;
77076;SDS011;66003;52.286;104.306;2023-08-01T13:05:40;34.85;;;24.27;;
77076;SDS011;66003;52.286;104.306;2023-08-01T13:08:08;35.35;;;23.67;;
77076;SDS011;66003;52.286;104.306;2023-08-01T13:10:36;33.28;;;23.73;;
77076;SDS011;66003;52.286;104.306;2023-08-01T13:13:03;37.25;;;25.67;;
77076;SDS011;66003;52.286;104.306;2023-08-01T13:15:31;41.63;;;25.98;;
77076;SDS011;66003;52.286;104.306;2023-08-01T13:17:58;44.85;;;31.65;;
77076;SDS011;66003;52.286;104.306;2023-08-01T13:20:24;45.40;;;29.55;;
77076;SDS011;66003;52.286;104.306;2023-08-01T13:22:51;43.97;;;28.60;;
77076;SDS011;66003;52.286;104.306;2023-08-01T13:25:17;38.22;;;28.70;;
77076;SDS011;66003;52.286;104.306;2023-08-01T13:27:46;39.97;;;27.42;;
77076;SDS011;66003;52.286;104.306;2023-08-01T13:30:12;39.13;;;29.52;;
77076;SDS011;66003;52.286;104.306;2023-08-01T13:32:40;39.90;;;28.63;;
77076;SDS011;66003;52.286;104.306;2023-08-01T13:35:07;45.33;;;29.48;;
77076;SDS011;66003;52.286;104.306;2023-08-01T13:37:33;46.13;;;32.00;;
77076;SDS011;66003;52.286;104.306;2023-08-01T13:40:00;45.92;;;33.08;;
77076;SDS011;66003;52.286;104.306;2023-08-01T13:42:27;42.47;;;27.30;;
77076;SDS011;66003;52.286;104.306;2023-08-01T13:44:53;42.67;;;32.55;;
77076;SDS011;66003;52.286;104.306;2023-08-01T13:47:20;44.38;;;31.27;;
77076;SDS011;66003;52.286;104.306;2023-08-01T13:49:46;43.53;;;33.40;;
77076;SDS011;66003;52.286;104.306;2023-08-01T13:52:14;48.22;;;35.22;;
77076;SDS011;66003;52.286;104.306;2023-08-01T13:54:40;50.13;;;33.05;;
77076;SDS011;66003;52.286;104.306;2023-08-01T13:57:06;48.63;;;34.55;;
77076;SDS011;66003;52.286;104.306;2023-08-01T13:59:32;47.15;;;33.67;;
77076;SDS011;66003;52.286;104.306;2023-08-01T14:01:58;47.00;;;34.70;;
77076;SDS011;66003;52.286;104.306;2023-08-01T14:04:24;49.00;;;35.90;;